Terminal Aerodrome Forecast
Issued by NWS Hastings, NE

Home | Current Version | Previous Version | Text Only | Print | Product List | Glossary On
Versions: 1 2 3 4 5 6 7 8 9 10 11 12 13 14 15 16 17 18 19 20 21 22 23 24 25 26 27 28 29 30
000
FTUS43 KGID 131141
TAFGRI
TAF
KGRI 131141Z 1312/1412 16011KT P6SM SKC
     FM131400 17013G23KT P6SM SKC
     FM131700 19016G25KT P6SM FEW035 FEW250
     FM140000 17010KT P6SM SCT250
     FM140300 24013G20KT P6SM VCTS SCT035CB BKN100 OVC200
     FM140600 16008KT P6SM VCTS SCT025CB BKN120=

USA.gov is the U.S. government's official web portal to all federal, state and local government web resources and services.